x

Nickerson Bank (44251) Wave Buoy

1:00pm - Wed 29th Jul 2015 All times are UTC.

  • Sig Wave height 3.9ft
  • Peak Period 9s
  • Wind
    13mph, 16mph gusts
  • Sea Temp 55°f
  • Air Temp 52°f
  • Sea Pressure 1021.9mb

More Historic Weather Station data

Upgrade to MSW Pro to gain access to the past 30 days of data for over 8000 Wavebouys and Weather Stations around the globe.

Join Pro

Comparision Forecast

View Surf forecast
   
Wed 07/29 1:00pm 4ft 9s 13 16 mph 1021.9mb 55f 52f
12:00pm 4ft 9s 13 16 mph 1022mb 55f 52f
11:00am 3.5ft 9s 11 13 mph 1022.3mb 55f 52f
10:00am 3.5ft 8s 13 16 mph 1022.5mb 55f 53f
9:00am 3.5ft 8s 13 18 mph 1022.3mb 55f 52f
8:00am 3.5ft 8s 13 16 mph 1022.2mb 55f 52f
7:00am 3.5ft 8s 11 13 mph 1022.3mb 55f 52f
6:00am 4ft 8s 13 16 mph 1023mb 55f 53f
5:00am 4ft 8s 13 16 mph 1023.4mb 55f 53f
4:00am 4ft 9s 11 16 mph 1024.1mb 55f 53f
3:00am 4ft 8s 16 18 mph 1024.3mb 55f 53f
2:00am 4ft 8s 13 18 mph 1024.5mb 55f 53f
1:00am 3.5ft 8s 13 18 mph 1024.8mb 55f 53f
12:00am 3.5ft 8s 13 16 mph 1024.7mb 56f 53f
Tue 07/28 11:00pm 3.5ft 7s 11 13 mph 1024.6mb 56f 53f
10:00pm 3.5ft 8s 9 11 mph 1024.6mb 56f 53f
9:00pm 3.5ft 9s 9 11 mph 1024.3mb 56f 53f
8:00pm 3.5ft 8s 9 11 mph 1024.3mb 56f 53f
7:00pm 3.5ft 8s 11 13 mph 1024.2mb 56f 53f
6:00pm 3.5ft 8s 11 13 mph 1024.6mb 56f 53f
5:00pm 3ft 9s 11 13 mph 1024.9mb 55f 53f
4:00pm 3ft 8s 11 13 mph 1025.4mb 55f 53f
3:00pm 2.5ft 8s 11 13 mph 1025.5mb 55f 53f
2:00pm 2.5ft 8s 11 13 mph 1025.6mb 55f 53f
1:00pm 2.5ft 8s 11 13 mph 1025.2mb 55f 53f
12:00pm 2.5ft 9s 9 11 mph 1025.4mb 55f 52f
11:00am 2.5ft 8s 7 9 mph 1025.5mb 55f 53f
10:00am 2.5ft 8s 9 11 mph 1025.4mb 55f 53f
9:00am 2.5ft 8s 11 13 mph 1025.4mb 55f 53f
8:00am 2.5ft 9s 11 13 mph 1025mb 55f 53f
7:00am 2.5ft 8s 11 13 mph 1024.9mb 55f 53f
6:00am 3ft 8s 9 11 mph 1025.1mb 55f 53f
5:00am 2.5ft 8s 7 9 mph 1025.6mb 55f 52f
4:00am 2.5ft 8s 9 11 mph 1025.6mb 55f 52f
3:00am 2.5ft 8s 9
mph
1025.6mb 55f 52f
2:00am 2.5ft 11s 9
mph
1026.1mb 55f 51f
1:00am 2.5ft 11s 9
mph
1026.4mb 55f 51f
12:00am 2.5ft 8s 9
mph
1026.1mb 55f 51f
Mon 07/27 10:00pm 2.5ft 8s 11 16 mph 1025.3mb 55f 51f
9:00pm 2.5ft 9s 11 13 mph 1025.3mb 55f 51f
8:00pm 2.5ft 9s 11 13 mph 1025.4mb 55f 52f
7:00pm 2.5ft 9s 9 13 mph 1025.5mb 55f 52f
6:00pm 2.5ft 8s 9 11 mph 1025.5mb 55f 52f
5:00pm 2.5ft 8s 9 11 mph 1025.6mb 55f 53f
4:00pm 2.5ft 8s 9
mph
1025.7mb 55f 52f
3:00pm 3ft 8s 9
mph
1025.7mb 55f 53f
2:00pm 2.5ft 8s 9
mph
1025.5mb 55f 52f
1:00pm 3ft 8s 9
mph
1025.4mb 55f 51f
12:00pm 3ft 10s 9
mph
1025.3mb 54f 51f
11:00am 3ft 8s 4 7 mph 1025mb 54f 51f
10:00am 3ft 8s 4 7 mph 1024.6mb 55f 51f
9:00am 3ft 9s 7
mph
1024.4mb 55f 51f
8:00am 2.5ft 8s 4 7 mph 1024.2mb 55f 50f
7:00am 2.5ft 9s 4 7 mph 1023.9mb 54f 51f
6:00am 3ft 8s 4 7 mph 1024.1mb 54f 50f
5:00am 2.5ft 9s 9 11 mph 1024.2mb 54f 50f
4:00am 2.5ft 9s 9 11 mph 1024.1mb 54f 50f
3:00am 3ft 10s 4 7 mph 1024.2mb 54f 50f
2:00am 3ft 9s 2 4 mph 1024.1mb 54f 50f
1:00am 3ft 11s 2 4 mph 1024.2mb 54f 50f
12:00am 3ft 10s 2 4 mph 1023.8mb 54f 50f
Sun 07/26 11:00pm 3ft 10s 4
mph
1023.1mb 55f 50f
10:00pm 3ft 10s 4 7 mph 1023.3mb 55f 51f
9:00pm 3ft 10s 4 7 mph 1022.9mb 55f 51f
8:00pm 3.5ft 10s 2 4 mph 1023mb 55f 51f
7:00pm 3.5ft 10s 7 9 mph 1022.8mb 55f 50f
6:00pm 3.5ft 11s 9 11 mph 1022.5mb 54f 50f
5:00pm 3.5ft 10s 9 11 mph 1022.7mb 54f 50f
4:00pm 3.5ft 11s 13
mph
1022.2mb 55f 50f
3:00pm 3.5ft 10s 13 16 mph 1022.5mb 54f 50f
2:00pm 3.5ft 9s 11 13 mph 1022.3mb 54f 50f
12:00pm 3.5ft 10s 11 13 mph 1021.6mb 54f 49f
11:00am 3.5ft 10s 13 16 mph 1021.4mb 54f 49f
10:00am 3.5ft 10s 13 16 mph 1021mb 54f 49f
9:00am 3.5ft 10s 16 18 mph 1020.6mb 54f 49f
8:00am 3.5ft 11s 13 16 mph 1020.2mb 54f 48f
7:00am 3.5ft 11s 11 16 mph 1020.4mb 54f 49f
6:00am 4ft 10s 13 16 mph 1020.4mb 54f 49f
5:00am 4.5ft 9s 16 18 mph 1020mb 54f 49f
3:00am 4.5ft 10s 16 18 mph 1020.8mb 54f 49f
2:00am 5ft 9s 18 20 mph 1020.8mb 54f 49f
1:00am 5ft 9s 18 22 mph 1020.9mb 54f 49f
12:00am 5ft 10s 22 27 mph 1020.4mb 54f 49f
Sat 07/25 11:00pm  -   -  20
mph
1020.5mb - 49f
10:00pm 4.5ft 8s 18 22 mph 1020.7mb 54f 49f
9:00pm 4.5ft 10s 18 20 mph 1020.6mb 54f 49f
8:00pm 4.5ft 8s 18 20 mph 1020.9mb 54f 49f
7:00pm 4.5ft 10s 18 22 mph 1020.4mb 54f 49f
6:00pm 4.5ft 9s 16 20 mph 1021.1mb 54f 49f
4:00pm 4.5ft 9s 13 18 mph 1021.7mb 53f 48f
3:00pm 4.5ft 8s 16 18 mph 1022mb 53f 48f